Here is the Quick Look data you requested

The Data originates at the National Weather Service, and is made available here by the UAlbany Department of Atmospheric and Environmental Sciences

Surface Observations

K40B 171616Z AUTO VRB05G13KT 07/M33 A3013 RMK AO1 SLP221 T00671328 58009
K8B0 171555Z AUTO 33007KT 10SM CLR 06/M03 A3020 RMK AO2=
KAUG 171553Z AUTO 30006KT 10SM CLR 09/M03 A3024 RMK AO2 SLP243 T00891028=
KBGR 171553Z VRB05KT 10SM FEW050 09/M03 A3022 RMK AO2 SLP233 T00941033=
KBHB 171556Z AUTO 29009KT 10SM CLR 09/M02 A3022 RMK AO2 SLP237 T00891022 PNO $=
KCAR 171554Z AUTO 25009G14KT 10SM CLR 07/M04 A3013 RMK AO2 SLP212 T00721039=
KFVE 171553Z AUTO 22009KT 10SM BKN095 06/M04 A3010 RMK AO2 SLP200 T00561044=
KGNR 171556Z AUTO 32008KT 06/M02 A3015 RMK AO1 SLP224 T00611022=
KHUL 171553Z AUTO 30005KT 10SM CLR 08/M02 A3015 RMK AO2 SLP215 T00831022=
KIWI 171553Z AUTO VRB04KT 10SM CLR 11/M01 A3026 RMK AO2 SLP247 T01061006=
KIZG 171554Z AUTO 18005KT 10SM CLR 11/M02 A3024 RMK AO2 SLP244 T01111022=
KLEW 171556Z AUTO VRB06KT 10SM CLR 09/M02 A3025 RMK AO2 SLP260 T00891017=
KMLT 171553Z AUTO 32011KT 10SM CLR 08/M03 A3019 RMK AO2 SLP233 T00781033 TSNO=
KPQI 171556Z AUTO 29011G15KT 10SM CLR 07/M03 A3015 RMK AO2 SLP256 T00721028=
KPWM 171551Z VRB05KT 10SM CLR 11/M04 A3026 RMK AO2 SLP248 T01061039 $=
KRKD 171556Z AUTO 30008KT 10SM CLR 09/M02 A3023 RMK AO2 SLP240 T00941017=
KSFM 171556Z AUTO 26003KT 10SM CLR 11/M01 A3027 RMK AO2 SLP261 T01061011=
KWVL 171556Z AUTO 24006KT 10SM CLR 09/M02 A3021 RMK AO2 SLP258 T00891022=